Time;durP1;ratioP1;P1;durP2;ratioP2;P2;SDS_P1;SDS_P2;PMS_P1;PMS_P2;Temp;Humidity;BMP_temperature;BMP_pressure;BME280_temperature;BME280_humidity;BME280_pressure;Samples;Min_cycle;Max_cycle;Signal;HPM_P1;HPM_P2
2022/11/07 00:01:40;;;;;;;7.78;3.70;;;;;;;10.31;100.00;100664.78;5028809;28;20444;-68
2022/11/07 00:04:05;;;;;;;8.30;4.15;;;;;;;10.30;100.00;100666.69;5027123;28;20035;-68
2022/11/07 00:06:31;;;;;;;10.45;4.10;;;;;;;10.29;100.00;100666.91;5027233;28;20083;-67
2022/11/07 00:08:57;;;;;;;9.95;4.00;;;;;;;10.35;100.00;100668.72;5027880;28;20038;-68
2022/11/07 00:11:23;;;;;;;7.75;4.47;;;;;;;10.37;100.00;100669.31;5028506;28;20120;-68
2022/11/07 00:13:48;;;;;;;8.45;3.88;;;;;;;10.39;100.00;100664.41;5028893;28;20132;-69
2022/11/07 00:16:13;;;;;;;10.73;4.07;;;;;;;10.38;100.00;100668.25;5027752;28;20052;-67
2022/11/07 00:18:39;;;;;;;8.70;4.40;;;;;;;10.41;100.00;100670.53;5028528;28;20071;-68
2022/11/07 00:21:07;;;;;;;9.13;4.05;;;;;;;10.42;100.00;100674.94;5027930;28;20134;-68
2022/11/07 00:23:32;;;;;;;10.63;4.32;;;;;;;10.42;100.00;100672.19;5028515;28;20112;-67
2022/11/07 00:26:02;;;;;;;8.65;3.67;;;;;;;10.46;100.00;100675.31;5026913;28;20120;-68
2022/11/07 00:28:28;;;;;;;11.00;4.03;;;;;;;10.48;100.00;100667.69;5026865;28;20086;-68
2022/11/07 00:30:53;;;;;;;11.25;3.95;;;;;;;10.49;100.00;100686.69;5029014;28;20112;-68
2022/11/07 00:33:18;;;;;;;8.20;3.60;;;;;;;10.42;100.00;100680.44;5027220;28;20038;-69
2022/11/07 00:35:43;;;;;;;10.65;4.30;;;;;;;10.36;100.00;100679.47;5028925;28;20482;-67
2022/11/07 00:38:09;;;;;;;8.75;3.88;;;;;;;10.32;100.00;100683.75;5026933;28;20033;-68
2022/11/07 00:40:34;;;;;;;11.45;4.00;;;;;;;10.26;100.00;100681.94;5028920;28;20038;-68
2022/11/07 00:42:59;;;;;;;8.30;3.88;;;;;;;10.24;100.00;100686.84;5028704;28;20403;-67
2022/11/07 00:45:24;;;;;;;9.32;3.90;;;;;;;10.18;100.00;100690.44;5027976;28;20025;-68
2022/11/07 00:47:50;;;;;;;13.05;4.30;;;;;;;10.11;100.00;100686.97;5026869;28;20041;-69
2022/11/07 00:50:16;;;;;;;9.75;4.20;;;;;;;10.13;100.00;100693.88;5025820;28;20033;-67
2022/11/07 00:52:41;;;;;;;10.50;4.07;;;;;;;10.09;100.00;100686.38;5027727;28;20040;-68
2022/11/07 00:55:07;;;;;;;12.80;4.35;;;;;;;10.06;100.00;100689.56;5027760;28;20447;-68
2022/11/07 00:57:32;;;;;;;11.73;4.10;;;;;;;10.04;100.00;100689.81;5026981;28;20120;-67
2022/11/07 00:59:57;;;;;;;10.57;4.30;;;;;;;10.01;100.00;100693.00;5027826;28;20034;-67
2022/11/07 01:02:23;;;;;;;8.85;4.47;;;;;;;9.99;100.00;100691.59;5027306;28;20068;-68
2022/11/07 01:07:32;;;;;;;8.52;4.20;;;;;;;9.97;100.00;100688.22;5026401;28;20107;-68
2022/11/07 01:09:57;;;;;;;7.80;4.07;;;;;;;9.97;100.00;100699.19;5028314;28;20069;-68
2022/11/07 01:12:23;;;;;;;12.13;4.40;;;;;;;9.96;100.00;100694.78;5028403;28;20025;-68
2022/11/07 01:14:48;;;;;;;10.43;4.10;;;;;;;9.91;100.00;100700.94;5028321;28;20052;-69
2022/11/07 01:17:13;;;;;;;14.25;4.38;;;;;;;9.93;100.00;100706.19;5026310;28;20033;-68
2022/11/07 01:19:38;;;;;;;11.45;4.53;;;;;;;9.93;100.00;100707.03;5026746;28;20104;-68
2022/11/07 01:22:04;;;;;;;11.40;3.85;;;;;;;9.96;100.00;100705.75;5026126;28;20036;-68
2022/11/07 01:24:29;;;;;;;11.20;4.78;;;;;;;9.93;100.00;100725.41;5027703;28;20061;-68
2022/11/07 01:26:54;;;;;;;10.73;4.78;;;;;;;9.94;100.00;100721.63;5028066;28;20029;-67
2022/11/07 01:29:20;;;;;;;13.27;4.60;;;;;;;9.90;100.00;100729.44;5027003;28;20041;-68
2022/11/07 01:31:45;;;;;;;9.32;4.55;;;;;;;9.88;100.00;100726.94;5027808;28;20029;-68
2022/11/07 01:34:11;;;;;;;11.75;4.50;;;;;;;9.86;100.00;100737.28;5024666;28;20095;-68
2022/11/07 01:36:36;;;;;;;11.48;4.43;;;;;;;9.93;100.00;100725.41;5028104;28;20038;-68
2022/11/07 01:39:03;;;;;;;10.70;4.13;;;;;;;9.92;100.00;100729.22;5027063;28;20026;-68
2022/11/07 01:41:32;;;;;;;11.50;5.15;;;;;;;9.90;100.00;100736.84;5026847;28;20032;-68
2022/11/07 01:43:59;;;;;;;11.18;4.57;;;;;;;9.84;100.00;100733.13;5026457;28;20115;-68
2022/11/07 01:46:28;;;;;;;9.43;4.57;;;;;;;9.85;100.00;100738.38;5023518;28;20033;-69
2022/11/07 01:49:06;;;;;;;12.82;4.97;;;;;;;9.93;100.00;100720.75;5024898;28;20029;-70
2022/11/07 01:51:37;;;;;;;10.73;5.00;;;;;;;9.88;100.00;100732.44;5025962;28;20025;-69
2022/11/07 01:54:05;;;;;;;17.48;5.40;;;;;;;9.90;100.00;100736.84;5004619;28;20048;-68
2022/11/07 01:56:34;;;;;;;13.25;5.05;;;;;;;9.96;100.00;100734.00;5025120;28;20041;-69
2022/11/07 01:59:01;;;;;;;10.40;5.78;;;;;;;9.93;100.00;100726.22;5026331;28;20085;-68
2022/11/07 02:01:27;;;;;;;10.10;4.97;;;;;;;9.95;100.00;100718.63;5027601;28;20037;-69
2022/11/07 02:03:55;;;;;;;12.15;5.43;;;;;;;9.98;100.00;100714.56;5024475;28;20034;-69
2022/11/07 02:06:30;;;;;;;10.63;5.18;;;;;;;10.04;100.00;100732.88;5026477;28;20096;-69
2022/11/07 02:08:55;;;;;;;13.50;5.55;;;;;;;10.09;100.00;100730.28;5026626;28;20034;-68
2022/11/07 02:11:22;;;;;;;12.57;5.15;;;;;;;10.11;100.00;100730.88;5026679;28;20025;-69
2022/11/07 02:13:47;;;;;;;13.80;5.32;;;;;;;10.15;100.00;100732.09;5026469;28;20049;-69
2022/11/07 02:16:12;;;;;;;11.45;5.30;;;;;;;10.18;100.00;100734.38;5027006;28;20092;-69
2022/11/07 02:18:40;;;;;;;17.17;6.05;;;;;;;10.23;100.00;100731.75;5025822;28;20773;-70
2022/11/07 02:21:22;;;;;;;12.93;5.95;;;;;;;10.31;100.00;100742.47;5026225;28;20029;-69
2022/11/07 02:23:56;;;;;;;13.40;6.25;;;;;;;10.37;100.00;100738.78;5023895;28;20053;-69
2022/11/07 02:26:22;;;;;;;16.58;6.65;;;;;;;10.33;100.00;100732.09;5026133;28;20041;-68
2022/11/07 02:28:48;;;;;;;15.10;6.05;;;;;;;10.30;100.00;100731.72;5026530;28;20036;-69
2022/11/07 02:31:13;;;;;;;13.43;6.30;;;;;;;10.32;100.00;100741.41;5016001;28;20069;-69
2022/11/07 02:33:40;;;;;;;17.92;6.28;;;;;;;10.30;100.00;100735.31;5015338;28;20365;-69
2022/11/07 02:36:13;;;;;;;12.57;5.70;;;;;;;10.24;100.00;100739.00;5025915;28;20037;-69
2022/11/07 02:38:39;;;;;;;18.67;6.32;;;;;;;10.24;100.00;100741.72;5024562;28;20455;-69
2022/11/07 02:41:10;;;;;;;13.30;6.32;;;;;;;10.21;100.00;100739.41;5026759;28;20037;-68
2022/11/07 02:43:39;;;;;;;16.58;5.97;;;;;;;10.19;100.00;100741.56;5024411;28;20133;-69
2022/11/07 02:46:08;;;;;;;16.10;5.72;;;;;;;10.18;100.00;100734.38;5021563;28;20116;-69
2022/11/07 02:48:44;;;;;;;15.70;6.13;;;;;;;10.23;100.00;100726.28;5024691;28;20060;-71
2022/11/07 02:51:09;;;;;;;20.50;6.68;;;;;;;10.23;100.00;100729.03;5024711;28;20369;-68
2022/11/07 02:53:34;;;;;;;19.98;6.13;;;;;;;10.25;100.00;100721.44;5023344;28;20029;-69
2022/11/07 02:56:00;;;;;;;18.98;6.68;;;;;;;10.25;100.00;100724.19;5006028;28;20117;-68
2022/11/07 02:58:25;;;;;;;17.33;5.93;;;;;;;10.27;100.00;100722.03;5026569;28;20079;-69
2022/11/07 03:00:50;;;;;;;18.15;6.07;;;;;;;10.33;100.00;100721.09;5025069;28;20026;-69
2022/11/07 03:03:16;;;;;;;18.00;6.40;;;;;;;10.26;100.00;100720.38;5027308;28;20179;-68
2022/11/07 03:05:42;;;;;;;15.50;6.25;;;;;;;10.24;100.00;100719.78;5028007;28;20435;-68
2022/11/07 03:08:07;;;;;;;16.55;6.60;;;;;;;10.25;100.00;100718.69;5029164;28;20026;-68
2022/11/07 03:10:33;;;;;;;17.27;6.30;;;;;;;10.21;100.00;100727.59;5028529;28;20033;-69
2022/11/07 03:12:58;;;;;;;17.95;6.43;;;;;;;10.16;100.00;100724.72;5030923;28;20064;-69
2022/11/07 03:15:23;;;;;;;21.15;6.60;;;;;;;10.14;100.00;100723.03;5070488;28;20352;-69
2022/11/07 03:17:49;;;;;;;18.77;7.25;;;;;;;10.14;100.00;100728.53;5067311;28;20444;-69
2022/11/07 03:20:14;;;;;;;21.55;7.13;;;;;;;10.13;100.00;100726.81;5047955;28;20025;-68
2022/11/07 03:22:40;;;;;;;21.95;6.65;;;;;;;10.10;100.00;100730.03;5048345;28;20039;-69
2022/11/07 03:25:06;;;;;;;23.02;7.57;;;;;;;10.12;100.00;100727.06;5051421;28;20028;-69
2022/11/07 03:27:31;;;;;;;27.73;7.45;;;;;;;10.12;100.00;100730.63;5048908;28;20064;-69
2022/11/07 03:29:56;;;;;;;19.83;6.30;;;;;;;10.11;100.00;100728.13;5049615;28;20068;-69
2022/11/07 03:32:22;;;;;;;18.10;7.00;;;;;;;10.12;100.00;100730.63;5049574;28;20025;-69
2022/11/07 03:34:47;;;;;;;18.60;8.27;;;;;;;10.09;100.00;100725.63;5042592;28;20041;-68
2022/11/07 03:37:13;;;;;;;20.38;6.90;;;;;;;10.08;100.00;100731.31;5049036;28;20037;-68
2022/11/07 03:39:38;;;;;;;24.63;6.57;;;;;;;10.08;100.00;100736.81;5052220;28;20109;-68
2022/11/07 03:42:03;;;;;;;20.90;7.80;;;;;;;10.05;100.00;100731.81;5049745;28;20505;-69
2022/11/07 03:44:28;;;;;;;20.15;6.55;;;;;;;10.04;100.00;100739.22;5048142;28;20041;-68
2022/11/07 03:46:54;;;;;;;22.27;6.82;;;;;;;10.09;100.00;100744.00;5048057;28;20078;-69
2022/11/07 03:49:19;;;;;;;18.17;6.45;;;;;;;10.11;100.00;100739.13;5048761;28;20345;-69
2022/11/07 03:51:44;;;;;;;22.80;6.60;;;;;;;10.14;100.00;100745.00;5046173;28;20035;-69
2022/11/07 03:54:09;;;;;;;23.35;6.90;;;;;;;10.16;100.00;100739.25;5044266;28;20288;-69
2022/11/07 03:56:35;;;;;;;24.73;6.53;;;;;;;10.21;100.00;100742.16;5048345;28;20059;-69
2022/11/07 03:59:00;;;;;;;17.42;6.57;;;;;;;10.21;100.00;100738.56;5048059;28;20325;-69
2022/11/07 04:01:26;;;;;;;18.90;6.90;;;;;;;10.26;100.00;100738.75;5048593;28;20100;-69
2022/11/07 04:03:51;;;;;;;25.73;7.43;;;;;;;10.33;100.00;100742.22;5047175;28;20025;-69
2022/11/07 04:06:16;;;;;;;24.35;6.63;;;;;;;10.36;100.00;100733.53;5048946;28;20593;-68
2022/11/07 04:08:42;;;;;;;21.60;6.57;;;;;;;10.40;100.00;100745.75;5050324;28;20025;-69
2022/11/07 04:17:17;;;;;;;22.60;6.53;;;;;;;10.41;100.00;100736.44;5048512;28;20040;-69
2022/11/07 04:19:20;;;;;;;23.67;7.00;;;;;;;10.44;100.00;100721.38;5028376;28;20115;-69
2022/11/07 04:21:45;;;;;;;23.98;7.25;;;;;;;10.44;100.00;100729.63;5029123;28;20468;-69
2022/11/07 04:24:10;;;;;;;23.20;6.63;;;;;;;10.44;100.00;100730.50;5027844;28;20029;-68
2022/11/07 04:29:19;;;;;;;22.98;6.00;;;;;;;10.38;100.00;100745.94;5028352;28;20404;-68
2022/11/07 04:31:44;;;;;;;24.27;6.28;;;;;;;10.36;100.00;100745.34;5028882;28;20026;-69
2022/11/07 04:34:10;;;;;;;21.85;5.93;;;;;;;10.38;100.00;100747.88;5025549;28;20059;-69
2022/11/07 04:36:35;;;;;;;25.02;6.60;;;;;;;10.37;100.00;100738.78;5028055;28;20041;-69
2022/11/07 04:39:00;;;;;;;23.05;5.90;;;;;;;10.34;100.00;100742.03;5026592;28;20052;-69
2022/11/07 04:41:25;;;;;;;27.35;5.90;;;;;;;10.29;100.00;100738.25;5026850;28;20491;-69
2022/11/07 04:43:51;;;;;;;22.50;6.22;;;;;;;10.31;100.00;100744.38;5026720;28;20033;-69
2022/11/07 04:46:16;;;;;;;23.98;6.00;;;;;;;10.30;100.00;100749.03;5027174;28;20041;-68
2022/11/07 04:48:42;;;;;;;25.70;5.82;;;;;;;10.29;100.00;100747.38;5026646;28;20040;-69
2022/11/07 04:51:13;;;;;;;26.02;6.70;;;;;;;10.32;100.00;100746.06;5027883;28;20571;-68
2022/11/07 04:53:39;;;;;;;24.00;7.75;;;;;;;10.29;100.00;100743.75;5027931;28;20647;-68
2022/11/07 04:56:04;;;;;;;21.95;5.70;;;;;;;10.30;100.00;100745.47;5026374;28;20040;-68
2022/11/07 04:58:30;;;;;;;20.45;6.93;;;;;;;10.31;100.00;100747.13;5027970;28;20029;-69
2022/11/07 05:00:55;;;;;;;25.35;6.20;;;;;;;10.36;100.00;100742.63;5027071;28;20083;-69
2022/11/07 05:03:20;;;;;;;22.58;6.55;;;;;;;10.34;100.00;100758.50;5023590;28;20052;-68
2022/11/07 05:05:45;;;;;;;24.75;5.82;;;;;;;10.37;100.00;100749.78;5028827;28;20060;-69
2022/11/07 05:08:11;;;;;;;24.75;5.60;;;;;;;10.44;100.00;100757.06;5027510;28;20431;-69
2022/11/07 05:10:36;;;;;;;26.55;6.63;;;;;;;10.50;100.00;100757.00;5022376;28;20519;-67
2022/11/07 05:13:01;;;;;;;30.63;7.28;;;;;;;10.50;100.00;100759.75;5027663;28;20037;-69
2022/11/07 05:15:26;;;;;;;26.33;6.13;;;;;;;10.52;100.00;100765.84;5028370;28;20036;-69
2022/11/07 05:17:52;;;;;;;29.50;7.13;;;;;;;10.62;100.00;100762.53;5026728;28;20099;-69
2022/11/07 05:20:26;;;;;;;28.67;7.20;;;;;;;10.56;100.00;100752.50;5027487;28;20037;-68
2022/11/07 05:25:35;;;;;;;23.73;5.82;;;;;;;10.58;100.00;100769.56;5027832;28;20037;-68
2022/11/07 05:28:00;;;;;;;20.58;5.47;;;;;;;10.62;100.00;100765.28;5027358;28;20423;-68
2022/11/07 05:30:26;;;;;;;23.75;6.75;;;;;;;10.62;100.00;100763.38;5027880;28;20032;-68
2022/11/07 05:32:51;;;;;;;26.08;6.35;;;;;;;10.63;100.00;100769.69;5027262;28;20432;-69
2022/11/07 05:35:16;;;;;;;25.77;5.72;;;;;;;10.66;100.00;100774.75;5027674;28;20025;-69
2022/11/07 05:37:42;;;;;;;24.83;6.88;;;;;;;10.67;100.00;100759.09;5027062;28;20022;-69
2022/11/07 05:40:07;;;;;;;20.83;6.25;;;;;;;10.63;100.00;100766.94;5027473;28;20025;-68
2022/11/07 05:42:33;;;;;;;24.13;6.05;;;;;;;10.68;100.00;100769.84;5026769;28;20467;-69
2022/11/07 05:44:58;;;;;;;23.20;6.15;;;;;;;10.69;100.00;100768.75;5025080;28;20048;-69
2022/11/07 05:47:23;;;;;;;23.30;5.82;;;;;;;10.69;100.00;100778.91;5024950;28;20009;-68
2022/11/07 05:49:48;;;;;;;22.05;6.40;;;;;;;10.70;100.00;100770.47;5024795;28;20032;-70
2022/11/07 05:52:14;;;;;;;25.08;5.22;;;;;;;10.70;100.00;100759.47;5026137;28;20104;-68
2022/11/07 05:54:39;;;;;;;23.83;6.07;;;;;;;10.68;100.00;100766.25;5024354;28;20029;-69
2022/11/07 05:57:04;;;;;;;23.23;5.05;;;;;;;10.69;100.00;100762.44;5025787;28;20029;-69
2022/11/07 05:59:29;;;;;;;24.38;5.93;;;;;;;10.67;100.00;100759.09;5024924;28;20836;-69
2022/11/07 06:01:55;;;;;;;23.52;5.28;;;;;;;10.69;100.00;100760.50;5025012;28;20029;-69
2022/11/07 06:04:20;;;;;;;22.42;5.57;;;;;;;10.69;100.00;100773.41;5023903;28;20040;-68
2022/11/07 06:06:45;;;;;;;23.65;5.25;;;;;;;10.68;100.00;100755.28;5025504;28;20112;-68
2022/11/07 06:09:11;;;;;;;25.67;5.68;;;;;;;10.70;100.00;100759.47;5023995;28;20112;-69
2022/11/07 06:11:36;;;;;;;27.63;5.35;;;;;;;10.62;100.00;100768.88;5025081;28;20033;-69
2022/11/07 06:14:02;;;;;;;22.50;5.43;;;;;;;10.65;100.00;100751.94;5024851;28;20399;-69
2022/11/07 06:16:27;;;;;;;24.38;6.57;;;;;;;10.64;100.00;100768.63;5024484;28;20080;-69
2022/11/07 06:18:52;;;;;;;27.73;6.63;;;;;;;10.66;100.00;100761.00;5023704;28;20452;-68
2022/11/07 06:21:18;;;;;;;22.80;5.43;;;;;;;10.65;100.00;100762.91;5023003;28;20032;-69
2022/11/07 06:23:43;;;;;;;26.83;7.00;;;;;;;10.69;100.00;100748.69;5007825;28;20073;-69
2022/11/07 06:26:08;;;;;;;28.65;5.60;;;;;;;10.73;100.00;100764.47;5006922;28;20548;-69
2022/11/07 06:28:34;;;;;;;26.17;6.10;;;;;;;10.74;100.00;100766.16;5006841;28;20457;-69
2022/11/07 06:31:01;;;;;;;21.02;5.82;;;;;;;10.76;100.00;100765.94;5007228;28;20030;-70
2022/11/07 06:33:28;;;;;;;23.60;5.97;;;;;;;10.79;100.00;100768.19;5005633;28;20029;-70
2022/11/07 06:35:54;;;;;;;27.15;6.20;;;;;;;10.79;100.00;100774.53;5007101;28;20380;-69
2022/11/07 06:38:19;;;;;;;23.30;5.30;;;;;;;10.83;100.00;100778.47;5017344;28;20101;-69
2022/11/07 06:40:45;;;;;;;21.05;5.32;;;;;;;10.87;100.00;100782.44;5027081;28;20036;-69
2022/11/07 06:43:13;;;;;;;24.13;6.38;;;;;;;10.88;100.00;100784.13;5026693;28;20064;-70
2022/11/07 06:45:39;;;;;;;23.02;5.90;;;;;;;10.91;100.00;100789.16;5026852;28;20029;-68
2022/11/07 06:48:05;;;;;;;25.88;5.93;;;;;;;10.91;100.00;100772.66;5025895;28;20041;-68
2022/11/07 06:50:30;;;;;;;22.50;5.88;;;;;;;10.99;100.00;100787.97;5026156;28;20055;-68
2022/11/07 06:53:03;;;;;;;22.52;6.30;;;;;;;11.00;100.00;100778.69;5026140;28;20674;-68
2022/11/07 06:55:29;;;;;;;23.60;6.05;;;;;;;10.98;100.00;100789.03;5026587;28;20104;-69
2022/11/07 06:57:59;;;;;;;22.73;5.28;;;;;;;10.97;100.00;100792.03;5026456;28;20191;-69
2022/11/07 07:00:24;;;;;;;27.77;6.43;;;;;;;10.96;100.00;100793.94;5026544;28;20036;-70
2022/11/07 07:02:50;;;;;;;24.55;5.68;;;;;;;10.97;100.00;100803.03;5026678;28;20420;-69
2022/11/07 07:05:15;;;;;;;27.38;7.28;;;;;;;10.98;100.00;100800.03;5025484;28;20376;-69
2022/11/07 07:07:40;;;;;;;19.38;5.60;;;;;;;10.99;100.00;100804.44;5010353;28;20037;-69
2022/11/07 07:10:06;;;;;;;25.02;7.18;;;;;;;11.01;100.00;100796.84;5006853;28;20026;-69
2022/11/07 07:12:33;;;;;;;22.08;6.28;;;;;;;11.04;100.00;100809.25;5006459;28;20092;-68
2022/11/07 07:14:58;;;;;;;25.40;5.85;;;;;;;11.04;100.00;100809.25;5006417;28;20038;-68
2022/11/07 07:17:24;;;;;;;19.85;6.20;;;;;;;11.05;100.00;100810.91;5006490;28;20486;-68
2022/11/07 07:19:49;;;;;;;25.55;5.68;;;;;;;11.07;100.00;100806.88;5006145;28;20118;-69
2022/11/07 07:22:14;;;;;;;29.60;6.15;;;;;;;11.09;100.00;100812.97;5006711;28;20126;-69
2022/11/07 07:24:39;;;;;;;21.63;6.15;;;;;;;11.18;100.00;100818.97;5006278;28;20034;-68
2022/11/07 07:27:05;;;;;;;27.63;5.78;;;;;;;11.22;100.00;100820.19;5009040;28;20453;-70
2022/11/07 07:29:31;;;;;;;27.83;5.97;;;;;;;11.29;100.00;100820.06;5025829;28;20550;-68
2022/11/07 07:31:56;;;;;;;25.63;5.55;;;;;;;11.30;100.00;100825.31;5026121;28;20112;-68
2022/11/07 07:34:21;;;;;;;29.88;6.05;;;;;;;11.32;100.00;100831.44;5025105;28;20461;-70
2022/11/07 07:36:46;;;;;;;23.10;6.20;;;;;;;11.37;100.00;100828.81;5026616;28;20041;-69
2022/11/07 07:39:12;;;;;;;22.92;5.82;;;;;;;11.38;100.00;100835.16;5025424;28;20026;-69
2022/11/07 07:41:37;;;;;;;31.10;6.78;;;;;;;11.43;100.00;100827.88;5025840;28;20439;-67
2022/11/07 07:44:02;;;;;;;19.35;4.75;;;;;;;11.49;100.00;100830.75;5026228;28;20025;-69
2022/11/07 07:46:27;;;;;;;21.52;5.35;;;;;;;11.49;100.00;100823.31;5025843;28;20018;-68
2022/11/07 07:48:53;;;;;;;23.83;4.97;;;;;;;11.48;100.00;100829.06;5024813;28;20032;-69
2022/11/07 07:51:18;;;;;;;22.45;5.28;;;;;;;11.50;100.00;100832.41;5027992;28;20033;-69
2022/11/07 07:53:43;;;;;;;28.85;5.50;;;;;;;11.55;100.00;100832.53;5011482;28;20024;-69
2022/11/07 07:56:09;;;;;;;22.02;5.70;;;;;;;11.59;100.00;100837.34;5029661;28;20048;-69
2022/11/07 07:58:34;;;;;;;25.05;5.03;;;;;;;11.65;100.00;100838.28;5028865;28;20049;-70
2022/11/07 08:00:59;;;;;;;21.60;4.57;;;;;;;11.68;100.00;100837.81;5029609;28;20038;-69
2022/11/07 08:03:26;;;;;;;24.83;6.07;;;;;;;11.75;99.93;100844.03;5010530;28;20084;-69
2022/11/07 08:05:54;;;;;;;28.45;5.65;;;;;;;11.80;99.82;100846.91;5028995;28;20080;-70
2022/11/07 08:08:19;;;;;;;26.30;6.03;;;;;;;11.84;99.84;100845.41;5028581;28;20512;-69
2022/11/07 08:10:45;;;;;;;22.60;5.07;;;;;;;11.90;99.58;100838.94;5029760;28;20288;-69
2022/11/07 08:13:10;;;;;;;28.85;6.03;;;;;;;11.94;99.20;100837.38;5028992;28;20084;-70
2022/11/07 08:15:36;;;;;;;19.67;4.93;;;;;;;11.97;99.45;100840.75;5029119;28;20029;-69
2022/11/07 08:18:02;;;;;;;29.25;5.82;;;;;;;12.02;99.76;100854.63;5027949;28;20468;-70
2022/11/07 08:20:28;;;;;;;24.02;5.43;;;;;;;12.08;99.41;100860.00;5028998;28;20126;-69
2022/11/07 08:23:01;;;;;;;28.50;5.53;;;;;;;12.13;98.91;100851.00;5028477;28;20449;-70
2022/11/07 08:25:26;;;;;;;28.88;5.80;;;;;;;12.16;99.16;100851.34;5029063;28;20600;-69
2022/11/07 08:27:52;;;;;;;23.13;4.85;;;;;;;12.25;98.65;100860.09;5027852;28;20028;-69
2022/11/07 08:30:17;;;;;;;20.98;5.70;;;;;;;12.43;97.90;100859.13;5029111;28;20018;-69
2022/11/07 08:32:42;;;;;;;20.42;5.18;;;;;;;12.64;96.86;100868.66;5027746;28;20032;-69
2022/11/07 08:35:08;;;;;;;21.40;5.47;;;;;;;12.93;95.92;100867.59;5029127;28;20768;-69
2022/11/07 08:37:33;;;;;;;24.30;5.65;;;;;;;13.29;93.10;100871.06;5028542;28;20280;-69
2022/11/07 08:39:58;;;;;;;21.20;4.70;;;;;;;13.50;91.66;100863.97;5028556;28;20390;-69
2022/11/07 08:42:24;;;;;;;18.25;4.68;;;;;;;13.49;92.07;100876.94;5028439;28;20025;-70
2022/11/07 08:44:49;;;;;;;23.48;5.75;;;;;;;13.79;89.32;100881.28;5028701;28;20029;-70
2022/11/07 08:47:14;;;;;;;27.70;5.18;;;;;;;13.85;89.72;100872.00;5028737;28;20026;-69
2022/11/07 08:49:39;;;;;;;29.73;6.00;;;;;;;14.04;88.14;100883.63;5009266;28;20037;-69
2022/11/07 08:52:05;;;;;;;25.90;5.38;;;;;;;13.94;88.34;100884.31;5027813;28;20576;-69
2022/11/07 08:54:31;;;;;;;25.63;6.20;;;;;;;13.77;88.91;100889.81;5027550;28;20040;-68
2022/11/07 08:56:56;;;;;;;37.50;8.35;;;;;;;13.60;90.20;100893.66;5027846;28;20037;-69
2022/11/07 08:59:21;;;;;;;36.47;8.57;;;;;;;13.51;90.93;100895.97;5027914;28;20030;-69
2022/11/07 09:01:47;;;;;;;33.50;8.90;;;;;;;13.36;91.29;100904.81;5028244;28;20479;-69
2022/11/07 09:04:12;;;;;;;41.88;10.00;;;;;;;13.14;92.66;100918.44;5026935;28;20033;-69
2022/11/07 09:06:37;;;;;;;37.95;9.65;;;;;;;12.98;93.52;100917.31;5027876;28;20025;-68
2022/11/07 09:09:03;;;;;;;36.60;10.05;;;;;;;12.85;94.43;100923.09;5027851;28;20363;-69
2022/11/07 09:11:28;;;;;;;41.53;9.30;;;;;;;12.76;94.95;100909.94;5027882;28;20026;-68
2022/11/07 09:13:54;;;;;;;30.20;7.77;;;;;;;12.76;94.58;100919.03;5027360;28;20056;-69
2022/11/07 09:16:21;;;;;;;28.77;7.32;;;;;;;12.72;95.66;100917.84;5009761;28;20837;-69
2022/11/07 09:18:47;;;;;;;25.75;5.95;;;;;;;12.71;95.50;100918.94;5027269;28;20036;-69
2022/11/07 09:21:13;;;;;;;22.48;5.72;;;;;;;12.65;96.36;100925.41;5027674;28;20033;-68
2022/11/07 09:23:38;;;;;;;28.15;7.60;;;;;;;12.64;96.60;100921.00;5027127;28;20037;-69
2022/11/07 09:26:04;;;;;;;20.95;5.28;;;;;;;12.64;97.08;100921.84;5028066;28;20512;-69
2022/11/07 09:28:30;;;;;;;25.77;5.35;;;;;;;12.69;96.65;100926.63;5027448;28;21061;-69
2022/11/07 09:30:57;;;;;;;26.38;5.45;;;;;;;12.70;96.38;100928.28;5027774;28;20029;-69
2022/11/07 09:33:23;;;;;;;24.73;5.80;;;;;;;12.72;96.89;100931.63;5026438;28;20445;-69
2022/11/07 09:35:49;;;;;;;21.73;5.20;;;;;;;12.69;96.90;100938.47;5006883;28;20719;-69
2022/11/07 09:38:14;;;;;;;24.33;5.97;;;;;;;12.67;97.63;100932.38;5027489;28;20175;-69
2022/11/07 09:40:51;;;;;;;22.15;5.15;;;;;;;12.70;97.46;100936.56;5027481;28;20041;-69
2022/11/07 09:43:25;;;;;;;25.63;5.80;;;;;;;12.65;97.31;100937.28;5027365;28;20059;-68
2022/11/07 09:46:03;;;;;;;19.38;5.05;;;;;;;12.65;97.57;100931.78;5027372;28;20026;-69
2022/11/07 09:48:39;;;;;;;24.73;5.13;;;;;;;12.62;97.17;100940.53;5026360;28;20163;-69
2022/11/07 09:51:08;;;;;;;25.30;6.18;;;;;;;12.65;97.88;100950.22;5027412;28;20377;-69
2022/11/07 09:53:40;;;;;;;22.05;5.38;;;;;;;12.65;96.98;100947.47;5026628;28;20407;-69
2022/11/07 09:56:10;;;;;;;24.92;5.72;;;;;;;12.70;97.14;100942.06;5027411;28;20064;-69
2022/11/07 09:58:39;;;;;;;23.42;5.15;;;;;;;12.81;96.74;100941.19;5026779;28;20064;-69
2022/11/07 10:01:09;;;;;;;26.77;6.70;;;;;;;12.87;97.29;100939.38;5027336;28;20540;-68
2022/11/07 10:03:36;;;;;;;22.70;5.30;;;;;;;13.28;96.60;100940.22;5026125;28;20029;-68
2022/11/07 10:06:18;;;;;;;19.67;6.55;;;;;;;14.23;90.98;100947.69;5026798;28;20033;-69
2022/11/07 10:08:51;;;;;;;24.33;5.43;;;;;;;14.05;89.25;100946.03;5026508;28;20026;-69
2022/11/07 10:11:35;;;;;;;22.05;5.40;;;;;;;13.77;91.14;100942.25;5008949;28;20453;-69
2022/11/07 10:14:23;;;;;;;23.90;5.20;;;;;;;13.58;92.22;100939.97;5025620;28;20060;-69
2022/11/07 10:16:55;;;;;;;25.85;5.38;;;;;;;13.43;92.15;100933.09;5026556;28;20704;-70
2022/11/07 10:19:32;;;;;;;20.48;5.20;;;;;;;13.41;92.90;100945.47;5025403;28;20059;-69
2022/11/07 10:22:16;;;;;;;22.23;5.65;;;;;;;13.53;91.73;100953.66;5026355;28;20026;-69
2022/11/07 10:25:17;;;;;;;20.40;5.35;;;;;;;13.51;92.07;100937.38;5026254;28;20457;-69
2022/11/07 10:27:45;;;;;;;25.67;5.75;;;;;;;13.54;92.39;100949.84;5020982;28;20045;-68
2022/11/07 10:30:15;;;;;;;;;;;;;;;13.66;91.84;100956.13;5026570;28;20033;-69
2022/11/07 10:32:51;;;;;;;22.92;5.60;;;;;;;13.47;92.09;100953.56;5024782;28;19913;-68
2022/11/07 10:35:26;;;;;;;21.45;5.30;;;;;;;13.39;91.82;100962.28;5025706;28;20109;-68
2022/11/07 10:38:13;;;;;;;16.33;4.68;;;;;;;13.33;92.22;100955.00;5025726;28;20375;-69
2022/11/07 10:40:41;;;;;;;23.15;6.75;;;;;;;13.35;92.39;100966.59;5026436;28;20463;-68
2022/11/07 10:43:28;;;;;;;23.67;5.28;;;;;;;13.38;92.46;100974.41;5026475;28;20025;-68
2022/11/07 10:45:55;;;;;;;21.92;5.25;;;;;;;13.63;92.68;100973.19;5026330;28;20495;-69
2022/11/07 10:48:20;;;;;;;25.42;6.68;;;;;;;13.89;90.57;100966.19;5024876;28;20034;-69
2022/11/07 10:50:52;;;;;;;24.60;5.50;;;;;;;13.90;89.62;100971.47;5026456;28;20376;-69
2022/11/07 10:53:19;;;;;;;24.83;5.35;;;;;;;13.87;89.90;100971.97;5026084;28;20037;-69
2022/11/07 10:55:47;;;;;;;21.98;4.95;;;;;;;14.06;89.67;100975.34;5026848;28;20112;-69
2022/11/07 10:58:25;;;;;;;28.17;6.22;;;;;;;14.21;88.52;100971.97;5025867;28;20034;-69
2022/11/07 11:01:01;;;;;;;22.65;5.78;;;;;;;14.23;88.07;100975.31;5024059;28;20037;-69
2022/11/07 11:03:31;;;;;;;24.95;4.97;;;;;;;14.21;87.60;100980.28;5025113;28;20029;-69
2022/11/07 11:06:08;;;;;;;21.75;5.85;;;;;;;14.11;87.57;100964.38;5026344;28;20457;-69
2022/11/07 11:08:36;;;;;;;28.05;5.05;;;;;;;13.95;88.03;100968.81;5025205;28;20030;-68
2022/11/07 11:11:12;;;;;;;24.10;5.32;;;;;;;13.91;88.52;100966.78;5025901;28;20515;-69
2022/11/07 11:13:37;;;;;;;21.77;6.30;;;;;;;13.89;87.63;100967.03;5018937;28;20045;-69
2022/11/07 11:16:21;;;;;;;18.30;4.80;;;;;;;13.93;88.46;100961.84;5022139;28;20045;-68
2022/11/07 11:18:52;;;;;;;23.40;5.35;;;;;;;13.97;88.30;100969.38;5026001;28;20083;-69
2022/11/07 11:21:18;;;;;;;19.17;5.45;;;;;;;14.05;87.10;100956.25;5026685;28;20013;-69
2022/11/07 11:23:44;;;;;;;20.50;5.40;;;;;;;14.16;86.11;100964.44;5017779;28;20530;-69
2022/11/07 11:26:29;;;;;;;21.13;5.55;;;;;;;14.21;87.01;100958.16;5035353;28;20033;-69